sensor_id;sensor_type;location;lat;lon;timestamp;P1;durP1;ratioP1;P2;durP2;ratioP2
1533;SDS011;760;48.822;9.304;2022-12-18T05:04:53;7.60;;;6.97;;
1533;SDS011;760;48.822;9.304;2022-12-18T05:07:18;7.00;;;4.57;;
1533;SDS011;760;48.822;9.304;2022-12-18T05:09:44;8.50;;;6.27;;
1533;SDS011;760;48.822;9.304;2022-12-18T05:12:09;10.03;;;6.93;;
1533;SDS011;760;48.822;9.304;2022-12-18T05:14:35;7.30;;;5.73;;
1533;SDS011;760;48.822;9.304;2022-12-18T05:17:01;6.97;;;6.03;;
1533;SDS011;760;48.822;9.304;2022-12-18T05:19:26;7.37;;;5.40;;
1533;SDS011;760;48.822;9.304;2022-12-18T05:21:52;5.83;;;4.23;;
1533;SDS011;760;48.822;9.304;2022-12-18T05:24:17;5.70;;;5.40;;
1533;SDS011;760;48.822;9.304;2022-12-18T05:26:43;7.30;;;4.70;;
1533;SDS011;760;48.822;9.304;2022-12-18T05:29:08;14.33;;;5.63;;
1533;SDS011;760;48.822;9.304;2022-12-18T05:31:37;6.45;;;4.70;;
1533;SDS011;760;48.822;9.304;2022-12-18T05:34:03;4.18;;;3.50;;
1533;SDS011;760;48.822;9.304;2022-12-18T05:36:28;28.40;;;6.97;;
1533;SDS011;760;48.822;9.304;2022-12-18T05:38:54;4.83;;;3.57;;
1533;SDS011;760;48.822;9.304;2022-12-18T05:41:19;4.80;;;4.47;;
1533;SDS011;760;48.822;9.304;2022-12-18T05:43:45;7.83;;;6.13;;
1533;SDS011;760;48.822;9.304;2022-12-18T05:46:12;7.60;;;5.67;;
1533;SDS011;760;48.822;9.304;2022-12-18T05:48:39;7.80;;;7.13;;
1533;SDS011;760;48.822;9.304;2022-12-18T05:51:09;3.85;;;3.55;;
1533;SDS011;760;48.822;9.304;2022-12-18T05:53:36;3.85;;;3.55;;
1533;SDS011;760;48.822;9.304;2022-12-18T05:56:03;5.70;;;3.30;;
1533;SDS011;760;48.822;9.304;2022-12-18T05:58:30;4.95;;;3.47;;
1533;SDS011;760;48.822;9.304;2022-12-18T06:00:57;11.85;;;6.07;;
1533;SDS011;760;48.822;9.304;2022-12-18T06:03:23;3.55;;;3.10;;
1533;SDS011;760;48.822;9.304;2022-12-18T06:05:49;7.55;;;4.65;;
1533;SDS011;760;48.822;9.304;2022-12-18T06:08:14;4.47;;;3.50;;
1533;SDS011;760;48.822;9.304;2022-12-18T06:10:40;5.00;;;4.70;;
1533;SDS011;760;48.822;9.304;2022-12-18T06:13:06;8.52;;;7.68;;
1533;SDS011;760;48.822;9.304;2022-12-18T06:15:32;8.00;;;6.90;;
1533;SDS011;760;48.822;9.304;2022-12-18T06:18:00;8.07;;;4.70;;
1533;SDS011;760;48.822;9.304;2022-12-18T06:20:26;7.20;;;6.50;;
1533;SDS011;760;48.822;9.304;2022-12-18T06:22:51;5.90;;;5.30;;
1533;SDS011;760;48.822;9.304;2022-12-18T06:25:17;12.33;;;7.67;;
1533;SDS011;760;48.822;9.304;2022-12-18T06:27:43;5.13;;;4.70;;
1533;SDS011;760;48.822;9.304;2022-12-18T06:30:09;3.67;;;3.47;;
1533;SDS011;760;48.822;9.304;2022-12-18T06:32:35;9.73;;;4.65;;
1533;SDS011;760;48.822;9.304;2022-12-18T06:35:00;7.57;;;6.83;;
1533;SDS011;760;48.822;9.304;2022-12-18T06:37:26;6.33;;;5.30;;
1533;SDS011;760;48.822;9.304;2022-12-18T06:39:52;4.17;;;3.97;;
1533;SDS011;760;48.822;9.304;2022-12-18T06:42:18;6.38;;;6.05;;
1533;SDS011;760;48.822;9.304;2022-12-18T06:44:47;7.85;;;6.05;;
1533;SDS011;760;48.822;9.304;2022-12-18T06:47:13;4.90;;;4.47;;
1533;SDS011;760;48.822;9.304;2022-12-18T06:49:38;4.93;;;4.37;;
1533;SDS011;760;48.822;9.304;2022-12-18T06:52:04;11.63;;;6.33;;
1533;SDS011;760;48.822;9.304;2022-12-18T06:54:29;4.83;;;4.40;;
1533;SDS011;760;48.822;9.304;2022-12-18T06:56:55;5.23;;;4.33;;
1533;SDS011;760;48.822;9.304;2022-12-18T06:59:21;5.97;;;5.30;;
1533;SDS011;760;48.822;9.304;2022-12-18T07:01:46;9.20;;;7.80;;
1533;SDS011;760;48.822;9.304;2022-12-18T07:04:12;3.80;;;3.60;;
1533;SDS011;760;48.822;9.304;2022-12-18T07:06:38;2.97;;;2.87;;
1533;SDS011;760;48.822;9.304;2022-12-18T07:09:03;8.80;;;8.00;;
1533;SDS011;760;48.822;9.304;2022-12-18T07:11:29;4.77;;;3.53;;
1533;SDS011;760;48.822;9.304;2022-12-18T07:13:59;4.63;;;4.20;;
1533;SDS011;760;48.822;9.304;2022-12-18T07:16:25;6.93;;;6.35;;
1533;SDS011;760;48.822;9.304;2022-12-18T07:18:54;7.55;;;7.07;;
1533;SDS011;760;48.822;9.304;2022-12-18T07:21:20;3.38;;;2.85;;
1533;SDS011;760;48.822;9.304;2022-12-18T07:23:46;11.63;;;7.82;;
1533;SDS011;760;48.822;9.304;2022-12-18T07:26:13;5.30;;;4.78;;
1533;SDS011;760;48.822;9.304;2022-12-18T07:28:40;2.55;;;2.45;;
1533;SDS011;760;48.822;9.304;2022-12-18T07:31:07;11.70;;;5.82;;
1533;SDS011;760;48.822;9.304;2022-12-18T07:33:35;6.95;;;6.03;;
1533;SDS011;760;48.822;9.304;2022-12-18T07:36:01;6.87;;;6.20;;
1533;SDS011;760;48.822;9.304;2022-12-18T07:38:28;7.68;;;5.00;;
1533;SDS011;760;48.822;9.304;2022-12-18T07:40:54;18.50;;;5.40;;
1533;SDS011;760;48.822;9.304;2022-12-18T07:43:33;4.55;;;4.22;;
1533;SDS011;760;48.822;9.304;2022-12-18T07:45:59;11.68;;;7.28;;
1533;SDS011;760;48.822;9.304;2022-12-18T07:48:25;7.10;;;6.57;;
1533;SDS011;760;48.822;9.304;2022-12-18T07:50:51;6.88;;;6.30;;
1533;SDS011;760;48.822;9.304;2022-12-18T07:53:17;5.90;;;5.20;;
1533;SDS011;760;48.822;9.304;2022-12-18T07:55:42;5.50;;;5.00;;
1533;SDS011;760;48.822;9.304;2022-12-18T07:58:08;14.10;;;6.40;;
1533;SDS011;760;48.822;9.304;2022-12-18T08:00:34;6.80;;;5.93;;
1533;SDS011;760;48.822;9.304;2022-12-18T08:03:00;9.23;;;8.50;;
1533;SDS011;760;48.822;9.304;2022-12-18T08:05:26;8.95;;;6.38;;
1533;SDS011;760;48.822;9.304;2022-12-18T08:07:52;10.18;;;9.38;;
1533;SDS011;760;48.822;9.304;2022-12-18T08:10:18;13.18;;;7.72;;
1533;SDS011;760;48.822;9.304;2022-12-18T08:12:45;8.05;;;5.18;;
1533;SDS011;760;48.822;9.304;2022-12-18T08:15:13;16.05;;;10.13;;
1533;SDS011;760;48.822;9.304;2022-12-18T08:17:39;9.07;;;8.27;;
1533;SDS011;760;48.822;9.304;2022-12-18T08:20:04;8.80;;;7.97;;
1533;SDS011;760;48.822;9.304;2022-12-18T08:22:30;8.80;;;7.97;;
1533;SDS011;760;48.822;9.304;2022-12-18T08:24:58;15.70;;;9.18;;
1533;SDS011;760;48.822;9.304;2022-12-18T08:27:23;13.40;;;12.00;;
1533;SDS011;760;48.822;9.304;2022-12-18T08:29:49;16.27;;;11.27;;
1533;SDS011;760;48.822;9.304;2022-12-18T08:32:14;33.07;;;13.00;;
1533;SDS011;760;48.822;9.304;2022-12-18T08:34:40;18.00;;;13.70;;
1533;SDS011;760;48.822;9.304;2022-12-18T08:37:06;19.10;;;13.07;;
1533;SDS011;760;48.822;9.304;2022-12-18T08:39:31;18.90;;;14.43;;
1533;SDS011;760;48.822;9.304;2022-12-18T08:41:57;19.77;;;13.33;;
1533;SDS011;760;48.822;9.304;2022-12-18T08:44:41;22.80;;;13.45;;
1533;SDS011;760;48.822;9.304;2022-12-18T08:47:06;17.97;;;12.57;;
1533;SDS011;760;48.822;9.304;2022-12-18T08:49:33;20.92;;;14.15;;
1533;SDS011;760;48.822;9.304;2022-12-18T08:51:59;17.98;;;12.80;;
1533;SDS011;760;48.822;9.304;2022-12-18T08:54:26;19.60;;;11.67;;
1533;SDS011;760;48.822;9.304;2022-12-18T08:56:51;19.73;;;13.52;;
1533;SDS011;760;48.822;9.304;2022-12-18T08:59:17;18.30;;;11.20;;
1533;SDS011;760;48.822;9.304;2022-12-18T09:01:44;25.65;;;13.90;;
1533;SDS011;760;48.822;9.304;2022-12-18T09:04:10;15.65;;;11.10;;
1533;SDS011;760;48.822;9.304;2022-12-18T09:06:36;16.97;;;13.33;;
1533;SDS011;760;48.822;9.304;2022-12-18T09:09:03;19.73;;;12.60;;
1533;SDS011;760;48.822;9.304;2022-12-18T09:11:29;23.65;;;12.35;;
1533;SDS011;760;48.822;9.304;2022-12-18T09:13:56;20.45;;;13.93;;
1533;SDS011;760;48.822;9.304;2022-12-18T09:16:22;23.00;;;13.98;;
1533;SDS011;760;48.822;9.304;2022-12-18T09:18:49;25.80;;;13.40;;
1533;SDS011;760;48.822;9.304;2022-12-18T09:21:16;23.37;;;14.87;;
1533;SDS011;760;48.822;9.304;2022-12-18T09:23:52;22.27;;;14.43;;
1533;SDS011;760;48.822;9.304;2022-12-18T09:26:20;23.77;;;14.25;;
1533;SDS011;760;48.822;9.304;2022-12-18T09:28:46;22.95;;;15.18;;
1533;SDS011;760;48.822;9.304;2022-12-18T09:31:16;29.00;;;15.18;;
1533;SDS011;760;48.822;9.304;2022-12-18T09:33:44;20.45;;;14.23;;
1533;SDS011;760;48.822;9.304;2022-12-18T09:36:10;21.08;;;14.98;;
1533;SDS011;760;48.822;9.304;2022-12-18T09:38:38;18.50;;;13.48;;
1533;SDS011;760;48.822;9.304;2022-12-18T09:41:05;19.20;;;14.40;;
1533;SDS011;760;48.822;9.304;2022-12-18T09:43:52;20.58;;;13.20;;
1533;SDS011;760;48.822;9.304;2022-12-18T09:46:26;18.92;;;10.73;;
1533;SDS011;760;48.822;9.304;2022-12-18T09:49:03;19.15;;;12.25;;
1533;SDS011;760;48.822;9.304;2022-12-18T09:51:36;16.88;;;11.13;;
1533;SDS011;760;48.822;9.304;2022-12-18T09:54:14;15.32;;;10.73;;
1533;SDS011;760;48.822;9.304;2022-12-18T09:56:45;15.50;;;10.45;;
1533;SDS011;760;48.822;9.304;2022-12-18T09:59:34;16.23;;;10.23;;
1533;SDS011;760;48.822;9.304;2022-12-18T10:02:05;11.90;;;9.02;;
1533;SDS011;760;48.822;9.304;2022-12-18T10:04:39;20.30;;;10.35;;
1533;SDS011;760;48.822;9.304;2022-12-18T10:07:15;18.53;;;11.57;;
1533;SDS011;760;48.822;9.304;2022-12-18T10:09:55;17.73;;;10.70;;
1533;SDS011;760;48.822;9.304;2022-12-18T10:15:41;18.60;;;11.20;;
1533;SDS011;760;48.822;9.304;2022-12-18T10:18:29;18.63;;;11.50;;
1533;SDS011;760;48.822;9.304;2022-12-18T10:21:20;17.63;;;10.38;;
1533;SDS011;760;48.822;9.304;2022-12-18T10:26:23;19.77;;;10.57;;
1533;SDS011;760;48.822;9.304;2022-12-18T10:28:49;20.90;;;12.45;;
1533;SDS011;760;48.822;9.304;2022-12-18T10:31:18;15.35;;;11.65;;
1533;SDS011;760;48.822;9.304;2022-12-18T10:33:46;17.38;;;10.95;;
1533;SDS011;760;48.822;9.304;2022-12-18T10:36:11;16.40;;;10.03;;
1533;SDS011;760;48.822;9.304;2022-12-18T10:38:38;16.30;;;9.15;;
1533;SDS011;760;48.822;9.304;2022-12-18T10:43:34;19.25;;;9.05;;
1533;SDS011;760;48.822;9.304;2022-12-18T10:48:30;15.25;;;9.43;;
1533;SDS011;760;48.822;9.304;2022-12-18T10:50:58;16.33;;;8.13;;
1533;SDS011;760;48.822;9.304;2022-12-18T10:53:28;17.60;;;9.60;;
1533;SDS011;760;48.822;9.304;2022-12-18T10:55:56;14.50;;;8.02;;
1533;SDS011;760;48.822;9.304;2022-12-18T10:58:30;17.08;;;8.38;;
1533;SDS011;760;48.822;9.304;2022-12-18T11:01:01;17.10;;;8.75;;
1533;SDS011;760;48.822;9.304;2022-12-18T11:03:41;16.58;;;8.07;;
1533;SDS011;760;48.822;9.304;2022-12-18T11:06:23;13.60;;;8.63;;
1533;SDS011;760;48.822;9.304;2022-12-18T11:09:03;13.48;;;8.25;;
1533;SDS011;760;48.822;9.304;2022-12-18T11:11:30;16.90;;;9.55;;
1533;SDS011;760;48.822;9.304;2022-12-18T11:16:42;13.65;;;9.60;;
1533;SDS011;760;48.822;9.304;2022-12-18T11:19:13;13.20;;;9.18;;
1533;SDS011;760;48.822;9.304;2022-12-18T11:21:49;18.77;;;10.02;;
1533;SDS011;760;48.822;9.304;2022-12-18T11:24:18;18.10;;;9.38;;
1533;SDS011;760;48.822;9.304;2022-12-18T11:27:03;12.85;;;8.10;;
1533;SDS011;760;48.822;9.304;2022-12-18T11:29:37;18.83;;;10.80;;
1533;SDS011;760;48.822;9.304;2022-12-18T11:32:37;20.83;;;9.85;;
1533;SDS011;760;48.822;9.304;2022-12-18T11:35:04;12.25;;;7.28;;
1533;SDS011;760;48.822;9.304;2022-12-18T11:37:40;18.75;;;9.82;;
1533;SDS011;760;48.822;9.304;2022-12-18T11:40:18;18.17;;;8.52;;
1533;SDS011;760;48.822;9.304;2022-12-18T11:42:49;15.57;;;8.82;;
1533;SDS011;760;48.822;9.304;2022-12-18T11:45:30;19.52;;;10.50;;
1533;SDS011;760;48.822;9.304;2022-12-18T11:48:09;15.65;;;7.47;;
1533;SDS011;760;48.822;9.304;2022-12-18T11:50:50;16.83;;;8.88;;
1533;SDS011;760;48.822;9.304;2022-12-18T11:53:17;15.35;;;9.95;;
1533;SDS011;760;48.822;9.304;2022-12-18T11:58:48;12.35;;;8.05;;
1533;SDS011;760;48.822;9.304;2022-12-18T12:07:09;23.00;;;11.50;;
1533;SDS011;760;48.822;9.304;2022-12-18T12:13:05;16.77;;;8.45;;
1533;SDS011;760;48.822;9.304;2022-12-18T12:15:54;19.08;;;10.35;;
1533;SDS011;760;48.822;9.304;2022-12-18T12:18:47;14.73;;;9.18;;
1533;SDS011;760;48.822;9.304;2022-12-18T12:29:55;19.20;;;9.38;;
1533;SDS011;760;48.822;9.304;2022-12-18T12:32:25;19.52;;;8.57;;
1533;SDS011;760;48.822;9.304;2022-12-18T12:40:29;16.67;;;7.88;;
1533;SDS011;760;48.822;9.304;2022-12-18T12:43:04;12.00;;;8.52;;
1533;SDS011;760;48.822;9.304;2022-12-18T12:49:02;10.88;;;7.07;;
1533;SDS011;760;48.822;9.304;2022-12-18T12:51:18;14.10;;;8.00;;
1533;SDS011;760;48.822;9.304;2022-12-18T12:53:44;22.13;;;9.18;;
1533;SDS011;760;48.822;9.304;2022-12-18T12:56:11;15.32;;;8.50;;
1533;SDS011;760;48.822;9.304;2022-12-18T12:58:43;11.48;;;8.50;;
1533;SDS011;760;48.822;9.304;2022-12-18T13:01:32;22.05;;;9.23;;
1533;SDS011;760;48.822;9.304;2022-12-18T13:06:45;16.45;;;8.77;;
1533;SDS011;760;48.822;9.304;2022-12-18T13:09:29;16.33;;;8.98;;
1533;SDS011;760;48.822;9.304;2022-12-18T13:12:10;16.30;;;8.82;;
1533;SDS011;760;48.822;9.304;2022-12-18T13:14:56;19.52;;;9.77;;
1533;SDS011;760;48.822;9.304;2022-12-18T13:17:48;19.20;;;9.38;;
1533;SDS011;760;48.822;9.304;2022-12-18T13:20:14;19.10;;;7.80;;
1533;SDS011;760;48.822;9.304;2022-12-18T13:22:49;15.75;;;8.68;;
1533;SDS011;760;48.822;9.304;2022-12-18T13:25:37;10.45;;;8.90;;
1533;SDS011;760;48.822;9.304;2022-12-18T13:28:09;13.73;;;8.55;;
1533;SDS011;760;48.822;9.304;2022-12-18T13:30:48;18.35;;;9.00;;
1533;SDS011;760;48.822;9.304;2022-12-18T13:35:58;19.75;;;10.48;;
1533;SDS011;760;48.822;9.304;2022-12-18T13:38:44;13.20;;;8.45;;
1533;SDS011;760;48.822;9.304;2022-12-18T13:51:40;16.60;;;7.00;;
1533;SDS011;760;48.822;9.304;2022-12-18T13:54:36;15.43;;;8.77;;
1533;SDS011;760;48.822;9.304;2022-12-18T13:57:05;21.48;;;9.85;;
1533;SDS011;760;48.822;9.304;2022-12-18T13:59:49;17.00;;;9.25;;
1533;SDS011;760;48.822;9.304;2022-12-18T14:02:25;14.03;;;7.50;;
1533;SDS011;760;48.822;9.304;2022-12-18T14:04:52;13.32;;;8.57;;
1533;SDS011;760;48.822;9.304;2022-12-18T14:07:22;15.13;;;8.27;;
1533;SDS011;760;48.822;9.304;2022-12-18T14:09:51;20.42;;;8.05;;
1533;SDS011;760;48.822;9.304;2022-12-18T14:12:20;15.75;;;9.35;;
1533;SDS011;760;48.822;9.304;2022-12-18T14:15:31;19.48;;;8.52;;
1533;SDS011;760;48.822;9.304;2022-12-18T14:18:08;13.35;;;8.50;;
1533;SDS011;760;48.822;9.304;2022-12-18T14:21:04;16.73;;;9.95;;
1533;SDS011;760;48.822;9.304;2022-12-18T14:23:37;17.35;;;9.13;;
1533;SDS011;760;48.822;9.304;2022-12-18T14:26:26;15.82;;;9.68;;
1533;SDS011;760;48.822;9.304;2022-12-18T14:28:57;12.45;;;9.20;;
1533;SDS011;760;48.822;9.304;2022-12-18T14:31:26;23.17;;;12.00;;
1533;SDS011;760;48.822;9.304;2022-12-18T14:33:53;17.73;;;8.13;;
1533;SDS011;760;48.822;9.304;2022-12-18T14:36:23;21.33;;;9.77;;
1533;SDS011;760;48.822;9.304;2022-12-18T14:38:54;13.07;;;7.50;;
1533;SDS011;760;48.822;9.304;2022-12-18T14:41:21;18.90;;;8.68;;
1533;SDS011;760;48.822;9.304;2022-12-18T14:43:48;19.63;;;9.68;;
1533;SDS011;760;48.822;9.304;2022-12-18T14:46:25;20.20;;;10.85;;
1533;SDS011;760;48.822;9.304;2022-12-18T14:48:58;18.05;;;10.27;;
1533;SDS011;760;48.822;9.304;2022-12-18T14:51:27;17.77;;;10.50;;
1533;SDS011;760;48.822;9.304;2022-12-18T14:54:02;18.17;;;11.00;;
1533;SDS011;760;48.822;9.304;2022-12-18T14:56:36;19.08;;;10.82;;
1533;SDS011;760;48.822;9.304;2022-12-18T14:59:26;16.17;;;7.00;;
1533;SDS011;760;48.822;9.304;2022-12-18T15:01:58;17.90;;;11.73;;
1533;SDS011;760;48.822;9.304;2022-12-18T15:04:37;12.68;;;9.43;;
1533;SDS011;760;48.822;9.304;2022-12-18T15:07:11;20.38;;;10.18;;
1533;SDS011;760;48.822;9.304;2022-12-18T15:10:02;13.50;;;7.47;;
1533;SDS011;760;48.822;9.304;2022-12-18T15:15:00;15.00;;;9.48;;
1533;SDS011;760;48.822;9.304;2022-12-18T15:17:26;18.13;;;9.55;;
1533;SDS011;760;48.822;9.304;2022-12-18T15:19:53;17.57;;;8.67;;
1533;SDS011;760;48.822;9.304;2022-12-18T15:22:33;11.90;;;8.43;;
1533;SDS011;760;48.822;9.304;2022-12-18T15:25:01;12.48;;;8.63;;
1533;SDS011;760;48.822;9.304;2022-12-18T15:27:29;13.75;;;9.93;;
1533;SDS011;760;48.822;9.304;2022-12-18T15:32:33;13.43;;;9.98;;
1533;SDS011;760;48.822;9.304;2022-12-18T15:37:44;28.80;;;10.63;;
1533;SDS011;760;48.822;9.304;2022-12-18T15:40:13;15.93;;;8.37;;
1533;SDS011;760;48.822;9.304;2022-12-18T15:42:40;15.20;;;7.95;;
1533;SDS011;760;48.822;9.304;2022-12-18T15:45:25;11.23;;;7.55;;
1533;SDS011;760;48.822;9.304;2022-12-18T15:47:52;10.67;;;6.67;;
1533;SDS011;760;48.822;9.304;2022-12-18T15:50:17;11.38;;;8.52;;
1533;SDS011;760;48.822;9.304;2022-12-18T15:52:55;29.85;;;11.07;;
1533;SDS011;760;48.822;9.304;2022-12-18T15:55:22;17.57;;;7.73;;
1533;SDS011;760;48.822;9.304;2022-12-18T15:58:08;13.88;;;8.55;;
1533;SDS011;760;48.822;9.304;2022-12-18T16:00:35;11.98;;;8.13;;
1533;SDS011;760;48.822;9.304;2022-12-18T16:03:03;17.95;;;10.23;;
1533;SDS011;760;48.822;9.304;2022-12-18T16:05:29;11.95;;;6.63;;
1533;SDS011;760;48.822;9.304;2022-12-18T16:07:55;16.67;;;8.40;;
1533;SDS011;760;48.822;9.304;2022-12-18T16:10:21;15.00;;;7.73;;
1533;SDS011;760;48.822;9.304;2022-12-18T16:12:48;14.30;;;7.20;;
1533;SDS011;760;48.822;9.304;2022-12-18T16:15:14;16.07;;;9.50;;
1533;SDS011;760;48.822;9.304;2022-12-18T16:17:41;16.17;;;7.25;;
1533;SDS011;760;48.822;9.304;2022-12-18T16:22:44;15.23;;;8.32;;
1533;SDS011;760;48.822;9.304;2022-12-18T16:25:23;13.60;;;8.80;;
1533;SDS011;760;48.822;9.304;2022-12-18T16:27:51;9.40;;;6.93;;
1533;SDS011;760;48.822;9.304;2022-12-18T16:30:20;16.30;;;8.43;;
1533;SDS011;760;48.822;9.304;2022-12-18T16:32:47;17.50;;;7.68;;
1533;SDS011;760;48.822;9.304;2022-12-18T16:35:13;11.35;;;6.78;;
1533;SDS011;760;48.822;9.304;2022-12-18T16:37:41;15.60;;;9.20;;
1533;SDS011;760;48.822;9.304;2022-12-18T16:40:09;15.25;;;7.55;;
1533;SDS011;760;48.822;9.304;2022-12-18T16:42:37;16.15;;;8.85;;
1533;SDS011;760;48.822;9.304;2022-12-18T16:45:04;19.05;;;8.85;;
1533;SDS011;760;48.822;9.304;2022-12-18T16:47:31;24.48;;;9.60;;
1533;SDS011;760;48.822;9.304;2022-12-18T16:49:57;17.90;;;8.52;;
1533;SDS011;760;48.822;9.304;2022-12-18T16:52:23;15.30;;;8.57;;
1533;SDS011;760;48.822;9.304;2022-12-18T16:54:49;11.03;;;7.53;;
1533;SDS011;760;48.822;9.304;2022-12-18T16:57:15;13.80;;;8.20;;
1533;SDS011;760;48.822;9.304;2022-12-18T16:59:42;15.13;;;7.65;;
1533;SDS011;760;48.822;9.304;2022-12-18T17:02:29;14.07;;;9.20;;
1533;SDS011;760;48.822;9.304;2022-12-18T17:04:55;16.20;;;7.50;;
1533;SDS011;760;48.822;9.304;2022-12-18T17:07:21;11.15;;;8.18;;
1533;SDS011;760;48.822;9.304;2022-12-18T17:09:48;18.60;;;8.93;;
1533;SDS011;760;48.822;9.304;2022-12-18T17:12:15;11.20;;;9.27;;
1533;SDS011;760;48.822;9.304;2022-12-18T17:14:40;13.00;;;7.80;;
1533;SDS011;760;48.822;9.304;2022-12-18T17:17:06;13.03;;;10.13;;
1533;SDS011;760;48.822;9.304;2022-12-18T17:19:32;12.33;;;7.80;;
1533;SDS011;760;48.822;9.304;2022-12-18T17:21:57;10.63;;;8.33;;
1533;SDS011;760;48.822;9.304;2022-12-18T17:24:23;15.93;;;8.77;;
1533;SDS011;760;48.822;9.304;2022-12-18T17:26:49;19.10;;;11.33;;
1533;SDS011;760;48.822;9.304;2022-12-18T17:29:15;9.37;;;7.43;;
1533;SDS011;760;48.822;9.304;2022-12-18T17:31:42;8.75;;;5.70;;
1533;SDS011;760;48.822;9.304;2022-12-18T17:34:08;29.10;;;9.17;;
1533;SDS011;760;48.822;9.304;2022-12-18T17:36:35;20.52;;;8.98;;
1533;SDS011;760;48.822;9.304;2022-12-18T17:39:02;13.98;;;7.15;;
1533;SDS011;760;48.822;9.304;2022-12-18T17:41:28;12.32;;;7.38;;
1533;SDS011;760;48.822;9.304;2022-12-18T17:43:58;18.08;;;10.52;;
1533;SDS011;760;48.822;9.304;2022-12-18T17:46:26;14.38;;;9.82;;
1533;SDS011;760;48.822;9.304;2022-12-18T17:48:55;12.85;;;8.00;;
1533;SDS011;760;48.822;9.304;2022-12-18T17:51:25;10.90;;;7.43;;
1533;SDS011;760;48.822;9.304;2022-12-18T17:53:51;12.20;;;6.82;;
1533;SDS011;760;48.822;9.304;2022-12-18T17:56:19;16.30;;;6.77;;
1533;SDS011;760;48.822;9.304;2022-12-18T17:58:45;13.15;;;6.63;;
1533;SDS011;760;48.822;9.304;2022-12-18T18:01:13;16.23;;;7.43;;
1533;SDS011;760;48.822;9.304;2022-12-18T18:03:40;11.63;;;6.55;;
1533;SDS011;760;48.822;9.304;2022-12-18T18:06:06;12.80;;;8.93;;
1533;SDS011;760;48.822;9.304;2022-12-18T18:08:32;10.03;;;8.33;;
1533;SDS011;760;48.822;9.304;2022-12-18T18:11:03;17.70;;;6.90;;
1533;SDS011;760;48.822;9.304;2022-12-18T18:13:57;13.73;;;7.47;;
1533;SDS011;760;48.822;9.304;2022-12-18T18:16:27;17.58;;;9.50;;
1533;SDS011;760;48.822;9.304;2022-12-18T18:18:55;8.15;;;6.90;;
1533;SDS011;760;48.822;9.304;2022-12-18T18:21:22;13.77;;;10.20;;
1533;SDS011;760;48.822;9.304;2022-12-18T18:23:47;14.37;;;8.10;;
1533;SDS011;760;48.822;9.304;2022-12-18T18:26:13;11.23;;;7.27;;
1533;SDS011;760;48.822;9.304;2022-12-18T18:28:39;14.97;;;9.33;;
1533;SDS011;760;48.822;9.304;2022-12-18T18:31:05;20.27;;;9.88;;
1533;SDS011;760;48.822;9.304;2022-12-18T18:33:32;8.90;;;6.72;;
1533;SDS011;760;48.822;9.304;2022-12-18T18:35:58;10.57;;;6.60;;
1533;SDS011;760;48.822;9.304;2022-12-18T18:38:24;14.13;;;8.90;;
1533;SDS011;760;48.822;9.304;2022-12-18T18:41:02;14.93;;;7.77;;
1533;SDS011;760;48.822;9.304;2022-12-18T18:43:29;13.02;;;8.02;;
1533;SDS011;760;48.822;9.304;2022-12-18T18:45:58;15.38;;;10.02;;
1533;SDS011;760;48.822;9.304;2022-12-18T18:48:26;15.18;;;10.50;;
1533;SDS011;760;48.822;9.304;2022-12-18T18:50:58;14.95;;;9.30;;
1533;SDS011;760;48.822;9.304;2022-12-18T18:53:25;16.38;;;9.05;;
1533;SDS011;760;48.822;9.304;2022-12-18T18:55:52;12.63;;;8.13;;
1533;SDS011;760;48.822;9.304;2022-12-18T18:58:19;18.43;;;7.43;;
1533;SDS011;760;48.822;9.304;2022-12-18T19:00:52;14.35;;;9.15;;
1533;SDS011;760;48.822;9.304;2022-12-18T19:03:22;11.65;;;6.72;;
1533;SDS011;760;48.822;9.304;2022-12-18T19:05:55;18.42;;;7.15;;
1533;SDS011;760;48.822;9.304;2022-12-18T19:08:24;13.70;;;8.48;;
1533;SDS011;760;48.822;9.304;2022-12-18T19:10:54;13.57;;;8.90;;
1533;SDS011;760;48.822;9.304;2022-12-18T19:13:22;10.35;;;8.20;;
1533;SDS011;760;48.822;9.304;2022-12-18T19:15:51;12.90;;;7.88;;
1533;SDS011;760;48.822;9.304;2022-12-18T19:18:19;15.00;;;8.43;;
1533;SDS011;760;48.822;9.304;2022-12-18T19:20:58;13.48;;;8.15;;
1533;SDS011;760;48.822;9.304;2022-12-18T19:23:28;24.98;;;9.88;;
1533;SDS011;760;48.822;9.304;2022-12-18T19:25:54;10.68;;;7.82;;
1533;SDS011;760;48.822;9.304;2022-12-18T19:28:23;17.25;;;8.38;;
1533;SDS011;760;48.822;9.304;2022-12-18T19:30:53;12.38;;;6.82;;
1533;SDS011;760;48.822;9.304;2022-12-18T19:33:23;13.00;;;7.70;;
1533;SDS011;760;48.822;9.304;2022-12-18T19:35:49;12.13;;;6.82;;
1533;SDS011;760;48.822;9.304;2022-12-18T19:38:15;8.23;;;6.05;;
1533;SDS011;760;48.822;9.304;2022-12-18T19:40:44;13.67;;;9.67;;
1533;SDS011;760;48.822;9.304;2022-12-18T19:43:11;13.70;;;6.25;;
1533;SDS011;760;48.822;9.304;2022-12-18T19:45:37;18.23;;;10.40;;
1533;SDS011;760;48.822;9.304;2022-12-18T19:48:04;13.73;;;11.53;;
1533;SDS011;760;48.822;9.304;2022-12-18T19:50:30;15.63;;;10.07;;
1533;SDS011;760;48.822;9.304;2022-12-18T19:52:56;13.48;;;9.93;;
1533;SDS011;760;48.822;9.304;2022-12-18T19:55:22;20.80;;;8.35;;
1533;SDS011;760;48.822;9.304;2022-12-18T19:57:48;16.85;;;8.25;;
1533;SDS011;760;48.822;9.304;2022-12-18T20:00:14;12.83;;;7.30;;
1533;SDS011;760;48.822;9.304;2022-12-18T20:02:40;11.23;;;7.53;;
1533;SDS011;760;48.822;9.304;2022-12-18T20:05:07;16.13;;;8.03;;
1533;SDS011;760;48.822;9.304;2022-12-18T20:07:35;13.20;;;8.85;;
1533;SDS011;760;48.822;9.304;2022-12-18T20:10:01;10.93;;;8.90;;
1533;SDS011;760;48.822;9.304;2022-12-18T20:12:32;18.52;;;10.88;;
1533;SDS011;760;48.822;9.304;2022-12-18T20:14:58;14.18;;;8.95;;
1533;SDS011;760;48.822;9.304;2022-12-18T20:17:24;12.20;;;6.97;;
1533;SDS011;760;48.822;9.304;2022-12-18T20:19:49;14.17;;;6.73;;
1533;SDS011;760;48.822;9.304;2022-12-18T20:22:15;11.67;;;7.23;;
1533;SDS011;760;48.822;9.304;2022-12-18T20:24:41;10.63;;;6.43;;
1533;SDS011;760;48.822;9.304;2022-12-18T20:27:07;9.05;;;5.07;;
1533;SDS011;760;48.822;9.304;2022-12-18T20:29:32;16.90;;;6.27;;
1533;SDS011;760;48.822;9.304;2022-12-18T20:31:58;20.73;;;10.50;;
1533;SDS011;760;48.822;9.304;2022-12-18T20:34:24;13.07;;;6.73;;
1533;SDS011;760;48.822;9.304;2022-12-18T20:36:49;20.47;;;8.30;;
1533;SDS011;760;48.822;9.304;2022-12-18T20:39:15;11.63;;;7.17;;
1533;SDS011;760;48.822;9.304;2022-12-18T20:41:41;18.90;;;6.80;;
1533;SDS011;760;48.822;9.304;2022-12-18T20:44:11;10.70;;;7.97;;
1533;SDS011;760;48.822;9.304;2022-12-18T20:46:41;14.80;;;6.40;;
1533;SDS011;760;48.822;9.304;2022-12-18T20:49:07;14.27;;;8.00;;
1533;SDS011;760;48.822;9.304;2022-12-18T20:51:33;20.00;;;8.57;;
1533;SDS011;760;48.822;9.304;2022-12-18T20:53:59;11.53;;;8.83;;
1533;SDS011;760;48.822;9.304;2022-12-18T20:56:25;12.65;;;8.05;;
1533;SDS011;760;48.822;9.304;2022-12-18T20:58:51;9.55;;;5.28;;
1533;SDS011;760;48.822;9.304;2022-12-18T21:01:21;10.50;;;7.25;;
1533;SDS011;760;48.822;9.304;2022-12-18T21:03:47;12.85;;;7.93;;
1533;SDS011;760;48.822;9.304;2022-12-18T21:06:14;13.30;;;9.68;;
1533;SDS011;760;48.822;9.304;2022-12-18T21:08:41;12.50;;;8.90;;
1533;SDS011;760;48.822;9.304;2022-12-18T21:14:22;14.70;;;8.23;;
1533;SDS011;760;48.822;9.304;2022-12-18T21:16:53;14.43;;;8.05;;
1533;SDS011;760;48.822;9.304;2022-12-18T21:19:20;15.45;;;8.95;;
1533;SDS011;760;48.822;9.304;2022-12-18T21:21:47;11.20;;;9.00;;
1533;SDS011;760;48.822;9.304;2022-12-18T21:24:14;13.10;;;7.18;;
1533;SDS011;760;48.822;9.304;2022-12-18T21:26:44;21.27;;;8.82;;
1533;SDS011;760;48.822;9.304;2022-12-18T21:29:14;10.02;;;6.00;;
1533;SDS011;760;48.822;9.304;2022-12-18T21:31:44;20.75;;;8.30;;
1533;SDS011;760;48.822;9.304;2022-12-18T21:34:15;9.82;;;7.25;;
1533;SDS011;760;48.822;9.304;2022-12-18T21:36:42;13.80;;;8.27;;
1533;SDS011;760;48.822;9.304;2022-12-18T21:39:08;14.27;;;8.03;;
1533;SDS011;760;48.822;9.304;2022-12-18T21:41:34;11.43;;;7.03;;
1533;SDS011;760;48.822;9.304;2022-12-18T21:44:18;15.23;;;8.60;;
1533;SDS011;760;48.822;9.304;2022-12-18T21:46:44;14.13;;;8.10;;